createdAt,value
2022-12-29T00:00:55.730Z,1.00
2022-12-29T00:01:55.606Z,1.10
2022-12-29T00:02:55.800Z,1.00
2022-12-29T00:03:55.680Z,1.10
2022-12-29T00:04:55.626Z,1.10
2022-12-29T00:05:55.596Z,0.90
2022-12-29T00:06:55.592Z,1.00
2022-12-29T00:07:55.576Z,1.00
2022-12-29T00:08:55.566Z,1.00
2022-12-29T00:09:55.523Z,1.10
2022-12-29T00:10:55.597Z,1.00
2022-12-29T00:11:55.498Z,0.80
2022-12-29T00:12:55.553Z,0.90
2022-12-29T00:13:55.494Z,0.80
2022-12-29T00:14:55.478Z,0.90
2022-12-29T00:15:55.514Z,0.90
2022-12-29T00:16:55.470Z,0.90
2022-12-29T00:17:55.429Z,0.80
2022-12-29T00:18:55.580Z,0.90
2022-12-29T00:19:55.409Z,0.80
2022-12-29T00:20:55.415Z,0.80
2022-12-29T00:21:55.391Z,0.90
2022-12-29T00:22:55.414Z,0.80
2022-12-29T00:23:55.413Z,0.70
2022-12-29T00:24:55.401Z,0.70
2022-12-29T00:25:55.371Z,0.80
2022-12-29T00:26:55.341Z,0.80
2022-12-29T00:27:55.338Z,0.70
2022-12-29T00:28:55.324Z,0.70
2022-12-29T00:29:55.340Z,0.70
2022-12-29T00:30:55.411Z,0.70
2022-12-29T00:31:55.314Z,0.80
2022-12-29T00:32:55.273Z,0.80
2022-12-29T00:33:55.321Z,0.70
2022-12-29T00:34:55.322Z,0.80
2022-12-29T00:35:55.221Z,0.80
2022-12-29T00:36:55.223Z,0.50
2022-12-29T00:37:55.228Z,0.70
2022-12-29T00:38:55.303Z,0.70
2022-12-29T00:39:55.202Z,0.70
2022-12-29T00:40:55.184Z,0.70
2022-12-29T00:41:55.162Z,0.80
2022-12-29T00:42:55.180Z,0.70
2022-12-29T00:43:55.219Z,0.70
2022-12-29T00:44:55.135Z,0.70
2022-12-29T00:45:55.106Z,0.70
2022-12-29T00:46:55.160Z,0.70
2022-12-29T00:47:55.114Z,0.70
2022-12-29T00:48:55.107Z,0.60
2022-12-29T00:49:55.105Z,0.80
2022-12-29T00:50:55.107Z,0.80
2022-12-29T00:51:55.072Z,0.70
2022-12-29T00:52:55.093Z,0.70
2022-12-29T00:53:55.047Z,0.90
2022-12-29T00:54:55.095Z,0.70
2022-12-29T00:55:55.014Z,0.70
2022-12-29T00:56:55.015Z,0.60
2022-12-29T00:57:55.025Z,0.70
2022-12-29T00:58:57.954Z,0.60
2022-12-29T00:59:55.149Z,0.70
2022-12-29T01:00:54.991Z,0.60
2022-12-29T01:01:55.046Z,0.50
2022-12-29T01:02:55.062Z,0.60
2022-12-29T01:03:58.642Z,0.60
2022-12-29T01:04:55.955Z,0.60
2022-12-29T01:05:54.910Z,0.50
2022-12-29T01:06:54.904Z,0.70
2022-12-29T01:07:54.890Z,0.60
2022-12-29T01:08:54.869Z,0.60
2022-12-29T01:09:54.834Z,0.60
2022-12-29T01:10:54.866Z,0.70
2022-12-29T01:11:54.886Z,0.60
2022-12-29T01:12:54.846Z,0.60
2022-12-29T01:13:54.847Z,0.60
2022-12-29T01:14:54.829Z,0.60
2022-12-29T01:15:54.806Z,0.50
2022-12-29T01:16:54.767Z,0.70
2022-12-29T01:17:54.781Z,0.60
2022-12-29T01:18:54.742Z,0.70
2022-12-29T01:19:54.752Z,0.60
2022-12-29T01:20:54.756Z,0.60
2022-12-29T01:21:54.719Z,0.50
2022-12-29T01:22:54.704Z,0.70
2022-12-29T01:23:54.715Z,0.50
2022-12-29T01:24:54.693Z,0.60
2022-12-29T01:25:54.650Z,0.50
2022-12-29T01:26:54.651Z,0.60
2022-12-29T01:27:54.647Z,0.60
2022-12-29T01:28:54.623Z,0.70
2022-12-29T01:29:54.617Z,0.60
2022-12-29T01:30:54.605Z,0.60
2022-12-29T01:31:54.628Z,0.60
2022-12-29T01:32:54.642Z,0.50
2022-12-29T01:33:54.580Z,0.50
2022-12-29T01:34:54.582Z,0.50
2022-12-29T01:35:54.560Z,0.50
2022-12-29T01:36:54.544Z,0.50
2022-12-29T01:37:54.541Z,0.60
2022-12-29T01:38:54.532Z,0.50
2022-12-29T01:39:54.523Z,0.40
2022-12-29T01:40:54.511Z,0.40
2022-12-29T01:41:54.521Z,0.50
2022-12-29T01:42:54.488Z,0.40
2022-12-29T01:43:54.475Z,0.50
2022-12-29T01:44:54.533Z,0.50
2022-12-29T01:45:54.476Z,0.50
2022-12-29T01:46:54.418Z,0.50
2022-12-29T01:47:54.450Z,0.40
2022-12-29T01:48:54.435Z,0.50
2022-12-29T01:49:54.396Z,0.50
2022-12-29T01:50:54.394Z,0.40
2022-12-29T01:51:54.366Z,0.50
2022-12-29T01:52:54.453Z,0.50
2022-12-29T01:53:54.356Z,0.40
2022-12-29T01:54:54.347Z,0.40
2022-12-29T01:55:54.304Z,0.50
2022-12-29T01:56:54.327Z,0.40
2022-12-29T01:57:54.304Z,0.40
2022-12-29T01:58:54.376Z,0.40
2022-12-29T01:59:54.251Z,0.40
2022-12-29T02:00:54.318Z,0.40
2022-12-29T02:01:54.331Z,0.60
2022-12-29T02:02:54.326Z,0.50
2022-12-29T02:03:54.283Z,0.60
2022-12-29T02:04:54.212Z,0.40
2022-12-29T02:05:54.215Z,0.60
2022-12-29T02:06:54.229Z,0.40
2022-12-29T02:07:54.189Z,0.50
2022-12-29T02:08:54.183Z,0.50
2022-12-29T02:09:54.144Z,0.50
2022-12-29T02:10:54.169Z,0.50
2022-12-29T02:11:54.151Z,0.50
2022-12-29T02:12:54.188Z,0.50
2022-12-29T02:13:54.095Z,0.50
2022-12-29T02:14:54.120Z,0.40
2022-12-29T02:15:54.094Z,0.40
2022-12-29T02:16:54.115Z,0.50
2022-12-29T02:17:54.098Z,0.50
2022-12-29T02:18:54.079Z,0.40
2022-12-29T02:19:54.025Z,0.40
2022-12-29T02:20:54.051Z,0.40
2022-12-29T02:21:54.015Z,0.50
2022-12-29T02:22:54.030Z,0.40
2022-12-29T02:23:54.019Z,0.60
2022-12-29T02:24:54.003Z,0.50
2022-12-29T02:25:53.992Z,0.50
2022-12-29T02:26:53.975Z,0.40
2022-12-29T02:27:53.954Z,0.40
2022-12-29T02:28:53.968Z,0.40
2022-12-29T02:29:53.933Z,0.50
2022-12-29T02:30:53.989Z,0.30
2022-12-29T02:31:53.907Z,0.50
2022-12-29T02:32:53.895Z,0.50
2022-12-29T02:33:53.866Z,0.50
2022-12-29T02:34:53.884Z,0.50
2022-12-29T02:35:53.858Z,0.50
2022-12-29T02:36:53.839Z,0.40
2022-12-29T02:37:53.841Z,0.50
2022-12-29T02:38:53.818Z,0.30
2022-12-29T02:39:53.803Z,0.40
2022-12-29T02:40:55.500Z,0.50
2022-12-29T02:41:53.771Z,0.50
2022-12-29T02:42:53.795Z,0.40
2022-12-29T02:43:53.752Z,0.50
2022-12-29T02:44:53.800Z,0.40
2022-12-29T02:45:53.762Z,0.50
2022-12-29T02:46:53.778Z,0.30
2022-12-29T02:47:53.701Z,0.40
2022-12-29T02:48:53.712Z,0.30
2022-12-29T02:49:53.714Z,0.40
2022-12-29T02:50:53.707Z,0.30
2022-12-29T02:51:53.682Z,0.40
2022-12-29T02:52:53.679Z,0.40
2022-12-29T02:53:53.631Z,0.40
2022-12-29T02:54:55.339Z,0.40
2022-12-29T02:55:53.647Z,0.50
2022-12-29T02:56:53.622Z,0.40
2022-12-29T02:57:53.640Z,0.50
2022-12-29T02:58:53.605Z,0.40
2022-12-29T02:59:53.575Z,0.50
2022-12-29T03:00:53.937Z,0.40
2022-12-29T03:01:53.733Z,0.40
2022-12-29T03:02:53.600Z,0.30
2022-12-29T03:03:53.534Z,0.40
2022-12-29T03:04:53.511Z,0.40
2022-12-29T03:05:53.513Z,0.50
2022-12-29T03:06:53.529Z,0.40
2022-12-29T03:07:53.495Z,0.40
2022-12-29T03:08:53.484Z,0.50
2022-12-29T03:09:53.457Z,0.60
2022-12-29T03:10:53.497Z,0.40
2022-12-29T03:11:53.436Z,0.50
2022-12-29T03:12:53.479Z,0.40
2022-12-29T03:13:53.416Z,0.50
2022-12-29T03:14:53.415Z,0.40
2022-12-29T03:15:53.391Z,0.50
2022-12-29T03:16:53.468Z,0.50
2022-12-29T03:17:53.373Z,0.60
2022-12-29T03:18:53.424Z,0.50
2022-12-29T03:19:53.373Z,0.60
2022-12-29T03:20:53.358Z,0.60
2022-12-29T03:21:53.348Z,0.50
2022-12-29T03:22:53.326Z,0.50
2022-12-29T03:23:53.345Z,0.60
2022-12-29T03:24:53.297Z,0.50
2022-12-29T03:25:53.269Z,0.50
2022-12-29T03:26:53.282Z,0.50
2022-12-29T03:27:53.285Z,0.50
2022-12-29T03:28:53.281Z,0.40
2022-12-29T03:29:53.231Z,0.60
2022-12-29T03:30:53.286Z,0.50
2022-12-29T03:31:53.265Z,0.60
2022-12-29T03:32:53.210Z,0.50
2022-12-29T03:33:53.181Z,0.60
2022-12-29T03:34:53.216Z,0.50
2022-12-29T03:35:53.161Z,0.60
2022-12-29T03:36:53.161Z,0.50
2022-12-29T03:37:53.132Z,0.50
2022-12-29T03:38:53.144Z,0.50
2022-12-29T03:39:53.139Z,0.50
2022-12-29T03:40:53.110Z,0.50
2022-12-29T03:41:53.119Z,0.80
2022-12-29T03:42:53.089Z,0.50
2022-12-29T03:43:53.132Z,0.60
2022-12-29T03:44:53.068Z,0.40
2022-12-29T03:45:53.107Z,0.60
2022-12-29T03:46:53.026Z,0.40
2022-12-29T03:47:53.054Z,0.40
2022-12-29T03:48:53.004Z,0.50
2022-12-29T03:49:53.039Z,0.50
2022-12-29T03:50:52.973Z,0.40
2022-12-29T03:51:52.974Z,0.60
2022-12-29T03:52:52.950Z,0.50
2022-12-29T03:53:53.075Z,0.50
2022-12-29T03:54:52.973Z,0.60
2022-12-29T03:55:52.928Z,0.60
2022-12-29T03:56:52.904Z,0.50
2022-12-29T03:57:52.911Z,0.60
2022-12-29T03:58:52.910Z,0.60
2022-12-29T03:59:52.965Z,0.50
2022-12-29T04:00:52.901Z,0.60
2022-12-29T04:01:52.948Z,0.60
2022-12-29T04:02:53.015Z,0.50
2022-12-29T04:03:52.893Z,0.60
2022-12-29T04:04:53.012Z,0.70
2022-12-29T04:05:52.817Z,0.50
2022-12-29T04:06:52.815Z,0.60
2022-12-29T04:07:52.818Z,0.50
2022-12-29T04:08:52.796Z,0.60
2022-12-29T04:09:52.807Z,0.60
2022-12-29T04:10:52.940Z,0.50
2022-12-29T04:11:52.776Z,0.60
2022-12-29T04:12:52.721Z,0.60
2022-12-29T04:13:52.755Z,0.50
2022-12-29T04:14:52.729Z,0.60
2022-12-29T04:15:52.733Z,0.60
2022-12-29T04:16:52.703Z,0.40
2022-12-29T04:17:52.694Z,0.50
2022-12-29T04:18:52.678Z,0.60
2022-12-29T04:19:52.661Z,0.50
2022-12-29T04:20:52.642Z,0.60
2022-12-29T04:21:52.667Z,0.50
2022-12-29T04:22:52.809Z,0.50
2022-12-29T04:23:52.649Z,0.50
2022-12-29T04:24:52.580Z,0.70
2022-12-29T04:25:52.601Z,0.50
2022-12-29T04:26:52.565Z,0.60
2022-12-29T04:27:52.563Z,0.50
2022-12-29T04:28:52.634Z,0.50
2022-12-29T04:29:52.542Z,0.50
2022-12-29T04:30:52.570Z,0.50
2022-12-29T04:31:52.547Z,0.50
2022-12-29T04:32:52.519Z,0.50
2022-12-29T04:33:52.522Z,0.40
2022-12-29T04:34:52.599Z,0.60
2022-12-29T04:35:52.496Z,0.50
2022-12-29T04:36:52.476Z,0.50
2022-12-29T04:37:52.449Z,0.50
2022-12-29T04:38:52.464Z,0.60
2022-12-29T04:39:52.448Z,0.40
2022-12-29T04:40:52.438Z,0.50
2022-12-29T04:41:52.426Z,0.50
2022-12-29T04:42:52.376Z,0.50
2022-12-29T04:43:52.411Z,0.50
2022-12-29T04:44:52.374Z,0.40
2022-12-29T04:45:52.421Z,0.50
2022-12-29T04:46:52.445Z,0.50
2022-12-29T04:47:52.360Z,0.60
2022-12-29T04:48:52.311Z,0.50
2022-12-29T04:49:52.339Z,0.50
2022-12-29T04:50:52.329Z,0.40
2022-12-29T04:51:52.308Z,0.50
2022-12-29T04:52:52.316Z,0.50
2022-12-29T04:53:52.259Z,0.50
2022-12-29T04:54:52.272Z,0.30
2022-12-29T04:55:52.379Z,0.50
2022-12-29T04:56:52.239Z,0.40
2022-12-29T04:57:52.241Z,0.50
2022-12-29T04:58:52.209Z,0.40
2022-12-29T04:59:52.242Z,0.50
2022-12-29T05:00:52.159Z,0.50
2022-12-29T05:01:52.241Z,0.60
2022-12-29T05:02:52.325Z,0.40
2022-12-29T05:03:52.260Z,0.50
2022-12-29T05:04:52.158Z,0.40
2022-12-29T05:05:52.137Z,0.50
2022-12-29T05:06:52.084Z,0.40
2022-12-29T05:07:52.101Z,0.40
2022-12-29T05:08:52.061Z,0.50
2022-12-29T05:09:52.123Z,0.60
2022-12-29T05:10:52.044Z,0.60
2022-12-29T05:11:52.060Z,0.60
2022-12-29T05:12:52.071Z,0.50
2022-12-29T05:13:52.023Z,0.40
2022-12-29T05:14:52.012Z,0.60
2022-12-29T05:15:52.054Z,0.50
2022-12-29T05:16:51.968Z,0.50
2022-12-29T05:17:52.006Z,0.60
2022-12-29T05:18:51.964Z,0.50
2022-12-29T05:19:51.998Z,0.50
2022-12-29T05:20:51.985Z,0.50
2022-12-29T05:21:51.935Z,0.50
2022-12-29T05:22:51.965Z,0.60
2022-12-29T05:23:51.932Z,0.60
2022-12-29T05:24:51.910Z,0.50
2022-12-29T05:25:51.925Z,0.50
2022-12-29T05:26:51.847Z,0.60
2022-12-29T05:27:51.847Z,0.60
2022-12-29T05:28:51.821Z,0.50
2022-12-29T05:29:51.887Z,0.50
2022-12-29T05:30:51.808Z,0.60
2022-12-29T05:31:51.917Z,0.50
2022-12-29T05:32:51.799Z,0.60
2022-12-29T05:33:51.809Z,0.40
2022-12-29T05:34:51.816Z,0.50
2022-12-29T05:35:51.779Z,0.50
2022-12-29T05:36:51.727Z,0.70
2022-12-29T05:37:51.722Z,0.50
2022-12-29T05:38:51.710Z,0.50
2022-12-29T05:39:51.703Z,0.60
2022-12-29T05:40:53.369Z,0.50
2022-12-29T05:41:51.678Z,0.50
2022-12-29T05:42:53.343Z,0.60
2022-12-29T05:43:51.679Z,0.50
2022-12-29T05:44:51.631Z,0.50
2022-12-29T05:45:51.630Z,0.50
2022-12-29T05:46:51.689Z,0.60
2022-12-29T05:47:51.623Z,0.50
2022-12-29T05:48:51.641Z,0.60
2022-12-29T05:49:51.611Z,0.60
2022-12-29T05:50:51.712Z,0.50
2022-12-29T05:52:12.573Z,0.60
2022-12-29T05:52:51.564Z,0.60
2022-12-29T05:53:51.555Z,0.60
2022-12-29T05:54:51.543Z,0.40
2022-12-29T05:55:51.535Z,0.50
2022-12-29T05:56:51.556Z,0.50
2022-12-29T05:57:51.475Z,0.60
2022-12-29T05:58:51.467Z,0.60
2022-12-29T05:59:51.475Z,0.60
2022-12-29T06:00:51.470Z,0.60
2022-12-29T06:01:51.584Z,0.60
2022-12-29T06:02:51.567Z,0.50
2022-12-29T06:03:51.549Z,0.60
2022-12-29T06:04:51.465Z,0.60
2022-12-29T06:05:51.380Z,0.50
2022-12-29T06:06:51.425Z,0.60
2022-12-29T06:07:51.357Z,0.70
2022-12-29T06:08:51.378Z,0.60
2022-12-29T06:09:51.366Z,0.50
2022-12-29T06:10:51.321Z,0.50
2022-12-29T06:11:51.398Z,0.60
2022-12-29T06:12:51.332Z,0.60
2022-12-29T06:13:51.281Z,0.50
2022-12-29T06:14:51.297Z,0.50
2022-12-29T06:15:51.289Z,0.50
2022-12-29T06:16:51.333Z,0.60
2022-12-29T06:17:51.326Z,0.50
2022-12-29T06:18:51.249Z,0.60
2022-12-29T06:19:51.222Z,0.50
2022-12-29T06:20:51.882Z,0.60
2022-12-29T06:21:51.182Z,0.60
2022-12-29T06:22:51.229Z,0.70
2022-12-29T06:23:51.190Z,0.60
2022-12-29T06:24:51.178Z,0.60
2022-12-29T06:25:51.141Z,0.50
2022-12-29T06:26:51.188Z,0.60
2022-12-29T06:27:51.150Z,0.50
2022-12-29T06:28:51.142Z,0.60
2022-12-29T06:29:51.139Z,0.50
2022-12-29T06:30:51.109Z,0.50
2022-12-29T06:31:51.128Z,0.60
2022-12-29T06:32:51.082Z,0.60
2022-12-29T06:33:51.079Z,0.60
2022-12-29T06:34:51.097Z,0.80
2022-12-29T06:35:51.023Z,0.50
2022-12-29T06:36:52.699Z,0.50
2022-12-29T06:37:51.024Z,0.60
2022-12-29T06:38:51.013Z,0.50
2022-12-29T06:39:50.974Z,0.70
2022-12-29T06:40:50.995Z,0.50
2022-12-29T06:41:50.987Z,0.60
2022-12-29T06:42:50.985Z,0.50
2022-12-29T06:43:50.961Z,0.60
2022-12-29T06:44:50.946Z,0.70
2022-12-29T06:45:50.925Z,0.50
2022-12-29T06:46:50.914Z,0.60
2022-12-29T06:47:50.881Z,0.60
2022-12-29T06:48:50.896Z,0.60
2022-12-29T06:49:50.888Z,0.50
2022-12-29T06:50:50.877Z,0.50
2022-12-29T06:51:50.859Z,0.60
2022-12-29T06:52:50.832Z,0.60
2022-12-29T06:53:50.857Z,0.60
2022-12-29T06:54:50.847Z,0.70
2022-12-29T06:55:50.805Z,0.60
2022-12-29T06:56:50.790Z,0.60
2022-12-29T06:57:50.762Z,0.50
2022-12-29T06:58:51.083Z,0.80
2022-12-29T06:59:50.767Z,0.60
2022-12-29T07:00:50.786Z,0.70
2022-12-29T07:01:50.818Z,0.50
2022-12-29T07:02:50.783Z,0.60
2022-12-29T07:03:50.731Z,0.90
2022-12-29T07:04:50.681Z,0.60
2022-12-29T07:05:50.667Z,0.50
2022-12-29T07:06:50.656Z,0.60
2022-12-29T07:07:52.351Z,0.70
2022-12-29T07:08:50.668Z,0.60
2022-12-29T07:09:50.661Z,0.50
2022-12-29T07:10:50.640Z,0.60
2022-12-29T07:11:50.592Z,0.50
2022-12-29T07:12:50.601Z,0.80
2022-12-29T07:13:50.619Z,0.60
2022-12-29T07:14:50.564Z,0.60
2022-12-29T07:15:50.587Z,0.60
2022-12-29T07:16:50.609Z,0.60
2022-12-29T07:17:50.599Z,0.60
2022-12-29T07:18:50.518Z,0.50
2022-12-29T07:19:50.522Z,0.70
2022-12-29T07:20:50.525Z,0.60
2022-12-29T07:21:50.500Z,0.60
2022-12-29T07:22:50.494Z,0.70
2022-12-29T07:23:50.449Z,0.60
2022-12-29T07:24:50.436Z,0.70
2022-12-29T07:25:50.429Z,0.50
2022-12-29T07:26:50.428Z,0.60
2022-12-29T07:27:50.403Z,0.70
2022-12-29T07:28:50.386Z,0.50
2022-12-29T07:29:57.073Z,0.50
2022-12-29T07:30:50.388Z,0.50
2022-12-29T07:31:50.463Z,0.50
2022-12-29T07:32:50.370Z,0.50
2022-12-29T07:33:50.387Z,0.50
2022-12-29T07:34:50.350Z,0.50
2022-12-29T07:35:50.306Z,0.60
2022-12-29T07:36:50.280Z,0.60
2022-12-29T07:37:50.337Z,0.40
2022-12-29T07:38:50.265Z,0.50
2022-12-29T07:39:50.281Z,0.60
2022-12-29T07:40:50.241Z,0.60
2022-12-29T07:41:50.279Z,0.60
2022-12-29T07:42:50.212Z,0.50
2022-12-29T07:43:50.285Z,0.60
2022-12-29T07:44:50.191Z,0.70
2022-12-29T07:45:50.292Z,0.50
2022-12-29T07:46:56.103Z,0.70
2022-12-29T07:47:51.246Z,0.60
2022-12-29T07:48:50.151Z,0.60
2022-12-29T07:49:50.204Z,0.70
2022-12-29T07:50:50.156Z,0.60
2022-12-29T07:51:50.384Z,0.60
2022-12-29T07:52:50.106Z,0.50
2022-12-29T07:53:50.131Z,0.70
2022-12-29T07:54:50.083Z,0.60
2022-12-29T07:55:50.105Z,0.70
2022-12-29T07:56:50.045Z,0.60
2022-12-29T07:57:50.215Z,0.40
2022-12-29T07:58:50.044Z,0.60
2022-12-29T07:59:50.055Z,0.40
2022-12-29T08:00:50.025Z,0.60
2022-12-29T08:01:50.178Z,0.70
2022-12-29T08:02:49.996Z,0.60
2022-12-29T08:03:55.453Z,0.60
2022-12-29T08:04:50.977Z,0.70
2022-12-29T08:05:49.993Z,0.70
2022-12-29T08:06:49.946Z,0.50
2022-12-29T08:07:49.928Z,0.60
2022-12-29T08:08:49.904Z,0.60
2022-12-29T08:09:49.907Z,0.70
2022-12-29T08:10:49.924Z,0.70
2022-12-29T08:11:49.914Z,0.70
2022-12-29T08:12:49.882Z,0.70
2022-12-29T08:13:49.901Z,0.70
2022-12-29T08:14:49.873Z,0.50
2022-12-29T08:15:49.940Z,0.80
2022-12-29T08:16:49.837Z,0.70
2022-12-29T08:17:49.835Z,0.80
2022-12-29T08:18:49.811Z,0.60
2022-12-29T08:19:51.464Z,0.60
2022-12-29T08:20:52.587Z,0.70
2022-12-29T08:21:50.786Z,0.90
2022-12-29T08:22:49.761Z,0.70
2022-12-29T08:23:49.730Z,0.80
2022-12-29T08:24:49.712Z,0.60
2022-12-29T08:25:49.758Z,0.60
2022-12-29T08:26:49.722Z,0.60
2022-12-29T08:27:49.684Z,0.60
2022-12-29T08:28:49.703Z,0.70
2022-12-29T08:29:49.661Z,0.70
2022-12-29T08:30:49.676Z,0.60
2022-12-29T08:31:49.659Z,0.60
2022-12-29T08:32:49.699Z,0.80
2022-12-29T08:33:49.627Z,0.70
2022-12-29T08:34:49.629Z,0.60
2022-12-29T08:35:49.625Z,0.70
2022-12-29T08:36:49.590Z,0.60
2022-12-29T08:37:49.690Z,0.70
2022-12-29T08:38:49.535Z,0.70
2022-12-29T08:39:49.544Z,0.90
2022-12-29T08:40:49.541Z,0.40
2022-12-29T08:41:49.514Z,0.60
2022-12-29T08:42:49.522Z,0.80
2022-12-29T08:43:49.541Z,0.90
2022-12-29T08:44:49.476Z,0.90
2022-12-29T08:45:49.463Z,0.70
2022-12-29T08:46:49.488Z,0.60
2022-12-29T08:47:49.446Z,0.80
2022-12-29T08:48:49.415Z,0.70
2022-12-29T08:49:49.457Z,0.80
2022-12-29T08:50:49.424Z,0.70
2022-12-29T08:51:49.388Z,0.70
2022-12-29T08:52:49.394Z,0.80
2022-12-29T08:53:49.404Z,0.80
2022-12-29T08:54:49.373Z,0.70
2022-12-29T08:55:49.538Z,0.80
2022-12-29T08:56:49.353Z,0.70
2022-12-29T08:57:49.352Z,0.80
2022-12-29T08:58:49.300Z,0.70
2022-12-29T08:59:49.324Z,0.60
2022-12-29T09:00:49.338Z,0.80
2022-12-29T09:01:49.376Z,1.00
2022-12-29T09:02:49.499Z,0.80
2022-12-29T09:04:15.074Z,1.10
2022-12-29T09:04:50.248Z,1.00
2022-12-29T09:05:49.487Z,0.70
2022-12-29T09:06:49.230Z,0.70
2022-12-29T09:07:49.234Z,0.60
2022-12-29T09:08:49.171Z,0.70
2022-12-29T09:09:49.198Z,0.60
2022-12-29T09:10:49.152Z,0.80
2022-12-29T09:11:49.191Z,0.90
2022-12-29T09:12:49.149Z,0.70
2022-12-29T09:13:49.159Z,0.70
2022-12-29T09:14:49.130Z,0.70
2022-12-29T09:15:49.120Z,0.70
2022-12-29T09:16:49.150Z,0.70
2022-12-29T09:17:49.103Z,0.80
2022-12-29T09:18:49.088Z,0.60
2022-12-29T09:19:49.222Z,0.80
2022-12-29T09:20:49.054Z,0.70
2022-12-29T09:21:49.065Z,0.90
2022-12-29T09:22:49.041Z,0.80
2022-12-29T09:23:49.015Z,0.80
2022-12-29T09:24:48.995Z,0.70
2022-12-29T09:25:49.014Z,0.80
2022-12-29T09:26:48.970Z,0.60
2022-12-29T09:27:49.046Z,1.00
2022-12-29T09:28:48.943Z,1.50
2022-12-29T09:29:48.972Z,0.90
2022-12-29T09:30:48.947Z,0.80
2022-12-29T09:31:48.987Z,0.90
2022-12-29T09:32:54.784Z,0.70
2022-12-29T09:33:49.918Z,0.70
2022-12-29T09:34:48.909Z,1.00
2022-12-29T09:35:48.873Z,0.80
2022-12-29T09:36:48.853Z,0.80
2022-12-29T09:37:48.875Z,0.80
2022-12-29T09:38:48.908Z,0.80
2022-12-29T09:39:54.047Z,0.90
2022-12-29T09:40:49.825Z,1.00
2022-12-29T09:41:48.801Z,0.80
2022-12-29T09:42:48.804Z,0.80
2022-12-29T09:43:48.805Z,0.80
2022-12-29T09:44:48.830Z,0.70
2022-12-29T09:45:48.769Z,1.00
2022-12-29T09:46:48.771Z,0.80
2022-12-29T09:47:48.799Z,0.80
2022-12-29T09:48:48.722Z,0.90
2022-12-29T09:49:48.787Z,0.90
2022-12-29T09:50:48.709Z,0.90
2022-12-29T09:51:48.711Z,0.80
2022-12-29T09:52:48.682Z,0.80
2022-12-29T09:53:48.692Z,0.70
2022-12-29T09:54:56.364Z,0.70
2022-12-29T09:55:49.687Z,0.80
2022-12-29T09:56:48.639Z,0.80
2022-12-29T09:57:48.634Z,0.80
2022-12-29T09:58:48.614Z,0.70
2022-12-29T09:59:48.613Z,0.80
2022-12-29T10:00:54.528Z,0.80
2022-12-29T10:01:49.767Z,0.80
2022-12-29T10:02:48.733Z,0.70
2022-12-29T10:03:48.538Z,0.70
2022-12-29T10:04:48.547Z,0.80
2022-12-29T10:05:48.621Z,0.70
2022-12-29T10:07:27.352Z,0.90
2022-12-29T10:07:49.486Z,0.80
2022-12-29T10:08:48.492Z,0.70
2022-12-29T10:09:50.167Z,0.80
2022-12-29T10:10:48.469Z,0.80
2022-12-29T10:11:48.464Z,0.80
2022-12-29T10:12:48.437Z,1.00
2022-12-29T10:13:48.442Z,0.80
2022-12-29T10:14:48.434Z,0.90
2022-12-29T10:15:48.426Z,0.90
2022-12-29T10:16:48.421Z,1.10
2022-12-29T10:17:48.374Z,0.90
2022-12-29T10:18:48.373Z,0.80
2022-12-29T10:19:48.448Z,0.80
2022-12-29T10:20:48.342Z,0.70
2022-12-29T10:21:48.347Z,1.10
2022-12-29T10:22:48.325Z,0.80
2022-12-29T10:23:48.321Z,0.80
2022-12-29T10:24:48.279Z,0.70
2022-12-29T10:25:48.325Z,0.70
2022-12-29T10:26:48.322Z,1.00
2022-12-29T10:27:48.274Z,0.90
2022-12-29T10:28:48.227Z,0.90
2022-12-29T10:29:48.221Z,1.40
2022-12-29T10:30:48.241Z,0.70
2022-12-29T10:31:48.341Z,0.90
2022-12-29T10:32:48.190Z,0.90
2022-12-29T10:33:48.181Z,0.90
2022-12-29T10:34:48.196Z,1.00
2022-12-29T10:35:48.155Z,0.80
2022-12-29T10:36:48.175Z,1.00
2022-12-29T10:37:48.152Z,0.80
2022-12-29T10:38:48.124Z,0.80
2022-12-29T10:39:48.116Z,1.00
2022-12-29T10:40:48.132Z,0.90
2022-12-29T10:41:48.141Z,0.80
2022-12-29T10:42:48.056Z,1.10
2022-12-29T10:43:48.073Z,1.00
2022-12-29T10:44:48.026Z,0.70
2022-12-29T10:45:48.062Z,0.90
2022-12-29T10:46:48.081Z,0.90
2022-12-29T10:47:48.033Z,0.80
2022-12-29T10:48:47.981Z,1.00
2022-12-29T10:49:47.977Z,0.90
2022-12-29T10:50:48.002Z,0.70
2022-12-29T10:51:47.990Z,0.70
2022-12-29T10:52:48.073Z,1.10
2022-12-29T10:53:47.957Z,0.90
2022-12-29T10:54:55.165Z,0.80
2022-12-29T10:55:47.918Z,1.20
2022-12-29T10:56:47.933Z,0.90
2022-12-29T10:57:47.943Z,0.90
2022-12-29T10:58:49.694Z,0.90
2022-12-29T10:59:47.900Z,1.00
2022-12-29T11:00:47.876Z,0.80
2022-12-29T11:01:48.084Z,1.00
2022-12-29T11:02:47.980Z,0.80
2022-12-29T11:03:47.844Z,0.70
2022-12-29T11:04:47.787Z,0.60
2022-12-29T11:05:47.818Z,0.80
2022-12-29T11:06:47.860Z,1.10
2022-12-29T11:07:47.774Z,0.90
2022-12-29T11:08:47.743Z,0.90
2022-12-29T11:09:47.746Z,0.80
2022-12-29T11:10:47.718Z,0.80
2022-12-29T11:11:47.726Z,0.80
2022-12-29T11:12:47.781Z,0.80
2022-12-29T11:13:47.702Z,0.70
2022-12-29T11:14:47.671Z,0.80
2022-12-29T11:15:47.680Z,0.80
2022-12-29T11:16:47.691Z,0.80
2022-12-29T11:17:47.651Z,1.00
2022-12-29T11:18:47.676Z,0.90
2022-12-29T11:19:47.678Z,0.70
2022-12-29T11:20:47.628Z,0.90
2022-12-29T11:21:47.603Z,0.60
2022-12-29T11:22:47.583Z,0.80
2022-12-29T11:23:47.590Z,1.00
2022-12-29T11:24:47.623Z,0.90
2022-12-29T11:25:47.548Z,0.80
2022-12-29T11:26:47.569Z,0.70
2022-12-29T11:27:47.523Z,0.70
2022-12-29T11:28:47.531Z,0.90
2022-12-29T11:29:47.528Z,0.90
2022-12-29T11:30:47.497Z,0.90
2022-12-29T11:31:47.531Z,0.90
2022-12-29T11:32:47.477Z,1.00
2022-12-29T11:33:47.446Z,0.90
2022-12-29T11:34:47.478Z,0.90
2022-12-29T11:35:47.453Z,1.00
2022-12-29T11:36:47.431Z,0.80
2022-12-29T11:37:47.405Z,0.90
2022-12-29T11:38:47.440Z,0.70
2022-12-29T11:39:47.404Z,1.20
2022-12-29T11:40:47.427Z,0.90
2022-12-29T11:41:47.385Z,1.10
2022-12-29T11:42:47.383Z,0.80
2022-12-29T11:43:47.331Z,0.80
2022-12-29T11:44:47.367Z,0.90
2022-12-29T11:45:47.386Z,0.90
2022-12-29T11:46:47.337Z,0.80
2022-12-29T11:47:47.308Z,0.70
2022-12-29T11:48:47.290Z,1.00
2022-12-29T11:49:47.251Z,0.80
2022-12-29T11:50:47.287Z,0.90
2022-12-29T11:51:47.277Z,0.90
2022-12-29T11:52:47.235Z,0.90
2022-12-29T11:53:47.234Z,1.10
2022-12-29T11:54:49.187Z,0.90
2022-12-29T11:55:47.239Z,1.00
2022-12-29T11:56:47.194Z,0.80
2022-12-29T11:57:47.227Z,0.90
2022-12-29T11:58:47.190Z,0.70
2022-12-29T11:59:49.627Z,0.90
2022-12-29T12:00:47.220Z,0.90
2022-12-29T12:01:47.213Z,0.80
2022-12-29T12:02:47.214Z,0.80
2022-12-29T12:03:47.226Z,0.90
2022-12-29T12:04:47.091Z,1.80
2022-12-29T12:05:47.132Z,1.40
2022-12-29T12:06:47.104Z,1.00
2022-12-29T12:07:47.045Z,0.90
2022-12-29T12:08:47.054Z,1.10
2022-12-29T12:09:47.017Z,0.90
2022-12-29T12:10:47.075Z,0.80
2022-12-29T12:11:46.999Z,1.10
2022-12-29T12:12:47.014Z,0.90
2022-12-29T12:13:46.983Z,0.80
2022-12-29T12:14:46.974Z,0.80
2022-12-29T12:15:52.703Z,0.90
2022-12-29T12:16:47.987Z,0.90
2022-12-29T12:17:46.929Z,0.80
2022-12-29T12:18:46.980Z,1.00
2022-12-29T12:19:46.920Z,0.80
2022-12-29T12:20:47.611Z,1.00
2022-12-29T12:21:46.905Z,0.80
2022-12-29T12:22:46.910Z,0.80
2022-12-29T12:23:46.886Z,1.20
2022-12-29T12:24:46.903Z,0.80
2022-12-29T12:25:46.875Z,0.80
2022-12-29T12:26:46.843Z,0.80
2022-12-29T12:27:46.803Z,1.00
2022-12-29T12:28:46.808Z,0.70
2022-12-29T12:29:46.827Z,0.90
2022-12-29T12:30:46.823Z,0.70
2022-12-29T12:31:46.761Z,1.00
2022-12-29T12:32:46.792Z,0.90
2022-12-29T12:33:46.860Z,0.80
2022-12-29T12:34:46.773Z,1.00
2022-12-29T12:35:46.757Z,0.70
2022-12-29T12:36:46.703Z,0.90
2022-12-29T12:37:46.684Z,0.80
2022-12-29T12:38:46.711Z,1.10
2022-12-29T12:39:46.681Z,0.90
2022-12-29T12:40:46.659Z,0.90
2022-12-29T12:41:46.645Z,1.10
2022-12-29T12:42:46.637Z,0.90
2022-12-29T12:43:46.614Z,0.70
2022-12-29T12:44:46.660Z,0.90
2022-12-29T12:45:46.640Z,0.90
2022-12-29T12:46:46.667Z,1.00
2022-12-29T12:47:46.613Z,0.60
2022-12-29T12:48:46.592Z,0.90
2022-12-29T12:49:46.560Z,0.90
2022-12-29T12:50:46.592Z,0.80
2022-12-29T12:51:46.544Z,0.80
2022-12-29T12:52:46.547Z,0.90
2022-12-29T12:53:46.491Z,0.90
2022-12-29T12:54:46.547Z,0.70
2022-12-29T12:55:46.507Z,0.90
2022-12-29T12:56:46.471Z,0.90
2022-12-29T12:57:46.451Z,0.70
2022-12-29T12:58:46.468Z,1.00
2022-12-29T12:59:46.410Z,1.00
2022-12-29T13:00:46.417Z,1.10
2022-12-29T13:01:46.525Z,0.80
2022-12-29T13:02:46.576Z,1.10
2022-12-29T13:03:46.452Z,0.90
2022-12-29T13:04:46.368Z,0.80
2022-12-29T13:05:46.356Z,1.10
2022-12-29T13:06:46.353Z,0.80
2022-12-29T13:07:46.348Z,1.00
2022-12-29T13:08:46.381Z,0.90
2022-12-29T13:09:46.322Z,0.80
2022-12-29T13:10:51.376Z,1.00
2022-12-29T13:11:47.275Z,1.00
2022-12-29T13:12:46.299Z,1.00
2022-12-29T13:13:46.331Z,1.10
2022-12-29T13:14:46.243Z,0.80
2022-12-29T13:15:46.324Z,0.80
2022-12-29T13:16:46.249Z,0.70
2022-12-29T13:17:46.213Z,1.00
2022-12-29T13:18:46.263Z,0.90